createdAt,value
2023-05-04T00:02:33.399Z,4.43
2023-05-04T00:05:20.259Z,5.32
2023-05-04T00:08:00.269Z,3.90
2023-05-04T00:10:47.224Z,3.53
2023-05-04T00:13:27.394Z,3.22
2023-05-04T00:16:14.222Z,3.67
2023-05-04T00:18:54.350Z,4.22
2023-05-04T00:21:41.151Z,3.55
2023-05-04T00:24:21.420Z,3.67
2023-05-04T00:27:09.197Z,3.50
2023-05-04T00:29:49.265Z,3.97
2023-05-04T00:32:37.239Z,4.38
2023-05-04T00:35:17.310Z,2.75
2023-05-04T00:38:04.213Z,3.30
2023-05-04T00:40:51.125Z,3.47
2023-05-04T00:43:38.125Z,3.85
2023-05-04T00:46:26.205Z,3.55
2023-05-04T00:49:07.705Z,3.15
2023-05-04T00:51:54.125Z,3.53
2023-05-04T00:54:34.939Z,3.33
2023-05-04T00:57:22.165Z,3.55
2023-05-04T01:00:10.140Z,3.10
2023-05-04T01:02:50.371Z,4.15
2023-05-04T01:05:43.163Z,3.42
2023-05-04T01:08:28.211Z,2.17
2023-05-04T01:11:27.161Z,2.80
2023-05-04T01:14:08.183Z,3.22
2023-05-04T01:17:01.197Z,2.65
2023-05-04T01:19:42.182Z,3.47
2023-05-04T01:22:29.049Z,2.85
2023-05-04T01:25:16.125Z,2.20
2023-05-04T01:28:07.133Z,3.35
2023-05-04T01:30:58.181Z,3.13
2023-05-04T01:33:39.417Z,2.90
2023-05-04T01:36:27.088Z,2.72
2023-05-04T01:39:08.513Z,2.13
2023-05-04T01:41:55.079Z,1.90
2023-05-04T01:44:35.890Z,3.20
2023-05-04T01:47:24.126Z,1.77
2023-05-04T01:50:05.963Z,2.10
2023-05-04T01:52:53.057Z,2.22
2023-05-04T01:55:40.091Z,3.00
2023-05-04T01:58:20.188Z,2.38
2023-05-04T02:01:07.039Z,3.55
2023-05-04T02:03:54.160Z,2.67
2023-05-04T02:06:34.543Z,2.10
2023-05-04T02:09:21.104Z,2.47
2023-05-04T02:12:01.408Z,2.75
2023-05-04T02:14:48.022Z,1.85
2023-05-04T02:17:35.085Z,1.83
2023-05-04T02:20:23.042Z,1.52
2023-05-04T02:23:03.527Z,2.45
2023-05-04T02:25:47.052Z,1.58
2023-05-04T02:28:27.190Z,0.85
2023-05-04T02:31:15.020Z,2.40
2023-05-04T02:34:02.982Z,2.25
2023-05-04T02:36:53.437Z,1.73
2023-05-04T02:39:39.963Z,1.02
2023-05-04T02:42:27.950Z,1.25
2023-05-04T02:45:15.044Z,0.73
2023-05-04T02:47:55.370Z,1.70
2023-05-04T02:50:42.023Z,1.45
2023-05-04T02:53:29.097Z,1.42
2023-05-04T02:56:09.006Z,1.15
2023-05-04T02:58:56.114Z,1.98
2023-05-04T03:01:36.056Z,1.02
2023-05-04T03:04:22.992Z,1.25
2023-05-04T03:07:03.150Z,1.13
2023-05-04T03:09:49.968Z,1.50
2023-05-04T03:12:37.986Z,1.52
2023-05-04T03:15:24.966Z,1.20
2023-05-04T03:18:11.991Z,1.83
2023-05-04T03:20:53.440Z,1.33
2023-05-04T03:23:39.986Z,1.35
2023-05-04T03:26:27.924Z,1.33
2023-05-04T03:29:09.098Z,0.77
2023-05-04T03:31:55.998Z,1.23
2023-05-04T03:34:42.909Z,0.85
2023-05-04T03:37:24.479Z,1.67
2023-05-04T03:40:10.916Z,1.80
2023-05-04T03:43:04.895Z,1.55
2023-05-04T03:45:45.417Z,1.55
2023-05-04T03:48:32.023Z,1.45
2023-05-04T03:51:15.396Z,1.33
2023-05-04T03:54:01.935Z,1.63
2023-05-04T03:56:42.281Z,1.70
2023-05-04T03:59:30.927Z,1.08
2023-05-04T04:02:12.838Z,1.52
2023-05-04T04:04:59.883Z,1.52
2023-05-04T04:07:41.577Z,1.38
2023-05-04T04:10:27.927Z,2.25
2023-05-04T04:13:15.012Z,1.73
2023-05-04T04:16:02.022Z,2.58
2023-05-04T04:18:48.886Z,2.63
2023-05-04T04:21:29.021Z,1.48
2023-05-04T04:24:15.832Z,1.17
2023-05-04T04:26:56.203Z,1.63
2023-05-04T04:29:42.959Z,2.92
2023-05-04T04:32:23.030Z,2.78
2023-05-04T04:35:10.872Z,2.28
2023-05-04T04:37:51.398Z,1.98
2023-05-04T04:40:37.870Z,2.03
2023-05-04T04:43:24.861Z,2.03
2023-05-04T04:46:05.737Z,3.67
2023-05-04T04:48:52.844Z,2.20
2023-05-04T04:51:33.321Z,3.15
2023-05-04T04:54:19.888Z,2.83
2023-05-04T04:57:00.236Z,3.45
2023-05-04T04:59:46.841Z,1.73
2023-05-04T05:02:28.457Z,1.85
2023-05-04T05:05:15.910Z,1.85
2023-05-04T05:07:56.432Z,1.70
2023-05-04T05:10:43.970Z,1.80
2023-05-04T05:13:31.075Z,1.60
2023-05-04T05:16:10.904Z,2.55
2023-05-04T05:18:57.769Z,4.15
2023-05-04T05:21:37.876Z,2.85
2023-05-04T05:24:25.843Z,3.13
2023-05-04T05:27:12.854Z,3.50
2023-05-04T05:29:59.808Z,3.25
2023-05-04T05:32:48.450Z,3.38
2023-05-04T05:35:29.292Z,4.25
2023-05-04T05:38:15.830Z,3.63
2023-05-04T05:41:09.878Z,4.85
2023-05-04T05:43:56.838Z,3.72
2023-05-04T05:46:36.900Z,4.53
2023-05-04T05:49:23.933Z,4.55
2023-05-04T05:52:03.891Z,4.60
2023-05-04T05:54:50.749Z,3.17
2023-05-04T05:57:31.051Z,3.95
2023-05-04T06:00:19.758Z,2.53
2023-05-04T06:03:00.016Z,3.20
2023-05-04T06:05:48.243Z,3.22
2023-05-04T06:08:29.442Z,2.72
2023-05-04T06:11:19.242Z,3.78
2023-05-04T06:13:59.891Z,2.58
2023-05-04T06:16:46.693Z,2.00
2023-05-04T06:19:34.608Z,2.30
2023-05-04T06:22:15.384Z,2.92
2023-05-04T06:25:05.305Z,2.85
2023-05-04T06:27:54.786Z,2.17
2023-05-04T06:30:34.947Z,2.60
2023-05-04T06:33:21.786Z,2.72
2023-05-04T06:36:08.704Z,2.95
2023-05-04T06:38:55.665Z,1.63
2023-05-04T06:41:49.953Z,2.65
2023-05-04T06:44:30.040Z,1.67
2023-05-04T06:47:16.628Z,2.67
2023-05-04T06:49:57.901Z,3.40
2023-05-04T06:52:44.847Z,1.98
2023-05-04T06:55:25.088Z,2.58
2023-05-04T06:58:11.705Z,2.22
2023-05-04T07:00:53.009Z,2.13
2023-05-04T07:03:43.672Z,2.97
2023-05-04T07:06:26.788Z,1.20
2023-05-04T07:09:13.678Z,1.77
2023-05-04T07:11:55.313Z,2.35
2023-05-04T07:14:41.685Z,2.15
2023-05-04T07:17:28.646Z,1.23
2023-05-04T07:20:08.768Z,1.95
2023-05-04T07:40:08.691Z,1.25
2023-05-04T07:42:49.308Z,2.40
2023-05-04T07:45:35.703Z,2.97
2023-05-04T07:48:18.083Z,4.20
2023-05-04T07:51:04.731Z,12.25
2023-05-04T07:53:45.116Z,8.35
2023-05-04T07:56:31.736Z,8.60
2023-05-04T07:59:12.121Z,10.00
2023-05-04T08:01:58.713Z,11.52
2023-05-04T08:04:39.215Z,10.60
2023-05-04T08:07:25.720Z,12.23
2023-05-04T08:10:12.918Z,11.38
2023-05-04T08:12:52.713Z,12.23
2023-05-04T08:15:39.729Z,12.88
2023-05-04T08:18:19.731Z,12.70
2023-05-04T08:21:06.691Z,12.90
2023-05-04T08:23:46.914Z,13.48
2023-05-04T08:26:33.681Z,13.27
2023-05-04T08:29:15.128Z,13.05
2023-05-04T08:32:04.787Z,12.50
2023-05-04T08:34:44.777Z,14.02
2023-05-04T08:37:31.635Z,13.82
2023-05-04T08:40:25.608Z,13.02
2023-05-04T08:43:12.601Z,13.00
2023-05-04T08:45:59.649Z,12.95
2023-05-04T08:48:46.690Z,13.48
2023-05-04T08:51:27.256Z,13.13
2023-05-04T08:54:17.645Z,13.70
2023-05-04T08:57:05.674Z,13.23
2023-05-04T08:59:51.346Z,13.07
2023-05-04T09:02:38.660Z,13.23
2023-05-04T09:05:19.083Z,12.45
2023-05-04T09:08:06.639Z,13.18
2023-05-04T09:10:53.629Z,13.23
2023-05-04T09:13:40.654Z,12.98
2023-05-04T09:16:22.094Z,13.30
2023-05-04T09:19:08.590Z,14.65
2023-05-04T09:21:51.361Z,13.25
2023-05-04T09:24:39.731Z,13.93
2023-05-04T09:27:20.507Z,12.82
2023-05-04T09:30:07.602Z,12.60
2023-05-04T09:32:55.598Z,12.30
2023-05-04T09:35:43.612Z,13.02
2023-05-04T09:38:34.622Z,12.73
2023-05-04T09:41:14.795Z,13.73
2023-05-04T09:44:04.599Z,12.93
2023-05-04T09:46:51.705Z,14.57
2023-05-04T09:49:43.600Z,14.63
2023-05-04T09:52:32.682Z,15.85
2023-05-04T09:55:16.611Z,16.98
2023-05-04T09:57:57.049Z,15.95
2023-05-04T10:00:43.726Z,15.25
2023-05-04T10:03:26.588Z,15.88
2023-05-04T10:06:16.605Z,15.38
2023-05-04T10:09:05.816Z,14.68
2023-05-04T10:11:46.622Z,15.88
2023-05-04T10:14:31.254Z,14.73
2023-05-04T10:17:27.562Z,15.65
2023-05-04T10:20:19.908Z,15.80
2023-05-04T10:23:12.520Z,16.10
2023-05-04T10:26:14.594Z,15.90
2023-05-04T10:29:13.807Z,15.73
2023-05-04T10:32:00.644Z,15.75
2023-05-04T10:34:48.565Z,16.42
2023-05-04T10:37:29.452Z,16.00
2023-05-04T10:40:17.563Z,15.85
2023-05-04T10:43:04.516Z,14.60
2023-05-04T10:45:48.696Z,16.45
2023-05-04T10:48:44.556Z,15.13
2023-05-04T10:51:38.754Z,14.70
2023-05-04T10:54:29.491Z,14.98
2023-05-04T10:57:11.701Z,14.65
2023-05-04T11:00:05.532Z,15.57
2023-05-04T11:02:47.437Z,14.07
2023-05-04T11:05:34.451Z,15.50
2023-05-04T11:08:40.532Z,13.90
2023-05-04T11:11:28.525Z,13.98
2023-05-04T11:14:10.754Z,14.07
2023-05-04T11:16:57.498Z,14.60
2023-05-04T11:19:37.623Z,13.88
2023-05-04T11:22:25.497Z,14.15
2023-05-04T11:25:05.784Z,14.05
2023-05-04T11:27:55.527Z,13.73
2023-05-04T11:30:40.511Z,13.15
2023-05-04T11:33:27.492Z,13.60
2023-05-04T11:36:07.637Z,13.73
2023-05-04T11:38:55.535Z,11.93
2023-05-04T11:41:43.471Z,9.85
2023-05-04T11:44:23.893Z,8.55
2023-05-04T11:47:10.434Z,8.70
2023-05-04T11:49:57.468Z,8.75
2023-05-04T11:52:40.380Z,7.95
2023-05-04T11:55:35.462Z,7.90
2023-05-04T11:58:17.603Z,8.05
2023-05-04T12:01:05.467Z,8.70
2023-05-04T12:03:53.644Z,7.22
2023-05-04T12:06:41.451Z,7.40
2023-05-04T12:09:21.878Z,6.53
2023-05-04T12:12:08.419Z,7.60
2023-05-04T12:15:05.512Z,7.97
2023-05-04T12:17:45.809Z,6.63
2023-05-04T12:20:40.402Z,6.55
2023-05-04T12:23:27.452Z,7.28
2023-05-04T12:26:15.349Z,7.53
2023-05-04T12:28:57.057Z,8.40
2023-05-04T12:31:43.456Z,6.80
2023-05-04T12:34:23.753Z,7.45
2023-05-04T12:37:10.403Z,6.82
2023-05-04T12:40:05.609Z,7.18
2023-05-04T12:42:58.669Z,8.15
2023-05-04T12:45:38.366Z,7.40
2023-05-04T12:48:27.382Z,8.57
2023-05-04T12:51:08.529Z,8.90
2023-05-04T12:53:55.371Z,9.25
2023-05-04T12:56:42.359Z,8.00
2023-05-04T12:59:23.611Z,9.05
2023-05-04T13:02:10.395Z,8.43
2023-05-04T13:04:50.719Z,7.25
2023-05-04T13:07:37.358Z,8.10
2023-05-04T13:10:18.578Z,9.85
2023-05-04T13:13:05.387Z,9.13
2023-05-04T13:15:50.357Z,9.05
2023-05-04T13:18:37.337Z,9.32
2023-05-04T13:21:17.751Z,10.63
2023-05-04T13:24:04.311Z,9.60
2023-05-04T13:26:44.963Z,8.30
2023-05-04T13:29:31.320Z,8.85
2023-05-04T13:32:11.732Z,8.40
2023-05-04T13:34:59.406Z,9.48
2023-05-04T13:37:46.309Z,9.55
2023-05-04T13:40:40.368Z,9.52
2023-05-04T13:43:21.936Z,7.83
2023-05-04T13:46:08.337Z,11.15
2023-05-04T13:48:56.972Z,9.10
2023-05-04T13:51:38.421Z,9.18
2023-05-04T13:54:25.325Z,9.23
2023-05-04T13:57:05.440Z,8.88
2023-05-04T14:00:05.794Z,9.32
2023-05-04T14:02:54.400Z,8.82
2023-05-04T14:05:41.639Z,8.60
2023-05-04T14:08:21.333Z,8.45
2023-05-04T14:11:01.876Z,9.27
2023-05-04T14:13:48.297Z,10.55
2023-05-04T14:16:37.364Z,10.15
2023-05-04T14:19:17.355Z,8.27
2023-05-04T14:22:04.242Z,10.70
2023-05-04T14:24:44.385Z,9.82
2023-05-04T14:27:31.242Z,9.60
2023-05-04T14:30:12.413Z,8.95
2023-05-04T14:33:01.267Z,9.55
2023-05-04T14:35:47.934Z,9.18
2023-05-04T14:38:35.266Z,9.80
2023-05-04T14:41:15.537Z,9.85
2023-05-04T14:44:02.293Z,9.30
2023-05-04T14:46:42.452Z,9.63
2023-05-04T14:52:15.452Z,8.38
2023-05-04T14:55:02.253Z,9.25
2023-05-04T14:57:42.571Z,10.77
2023-05-04T15:00:29.272Z,8.18
2023-05-04T15:03:09.972Z,9.52
2023-05-04T15:05:57.289Z,9.48
2023-05-04T15:08:44.239Z,9.95
2023-05-04T15:11:31.198Z,9.95
2023-05-04T15:14:11.304Z,10.90
2023-05-04T15:16:58.208Z,9.90
2023-05-04T15:19:45.285Z,8.70
2023-05-04T15:22:32.193Z,9.68
2023-05-04T15:25:12.363Z,11.02
2023-05-04T15:27:59.200Z,8.70
2023-05-04T15:30:39.311Z,10.27
2023-05-04T15:33:26.247Z,11.10
2023-05-04T15:36:06.809Z,10.52
2023-05-04T15:38:53.194Z,9.35
2023-05-04T15:41:40.226Z,8.85
2023-05-04T15:44:23.636Z,9.77
2023-05-04T15:47:12.271Z,11.32
2023-05-04T15:49:52.656Z,10.55
2023-05-04T15:52:39.221Z,10.43
2023-05-04T15:55:25.804Z,10.43
2023-05-04T15:58:13.196Z,10.00
2023-05-04T16:00:53.593Z,10.85
2023-05-04T16:03:40.140Z,9.63
2023-05-04T16:06:27.178Z,11.93
2023-05-04T16:09:07.329Z,10.02
2023-05-04T16:11:54.222Z,10.88
2023-05-04T16:14:34.306Z,11.23
2023-05-04T16:17:21.110Z,9.57
2023-05-04T16:20:01.255Z,9.88
2023-05-04T16:22:48.139Z,10.43
2023-05-04T16:25:28.229Z,10.63
2023-05-04T16:28:15.132Z,9.65
2023-05-04T16:30:56.299Z,9.70
2023-05-04T16:33:43.174Z,10.63
2023-05-04T16:36:30.147Z,9.63
2023-05-04T16:39:17.190Z,11.30
2023-05-04T16:42:04.088Z,12.95
2023-05-04T16:44:51.221Z,11.57
2023-05-04T16:47:38.330Z,10.75
2023-05-04T16:50:18.575Z,10.57
2023-05-04T16:53:05.116Z,10.93
2023-05-04T16:55:52.113Z,11.25
2023-05-04T16:58:39.144Z,11.85
2023-05-04T17:01:26.209Z,10.73
2023-05-04T17:04:06.237Z,11.00
2023-05-04T17:06:53.240Z,13.23
2023-05-04T17:09:33.241Z,12.50
2023-05-04T17:12:22.329Z,10.95
2023-05-04T17:15:02.194Z,10.25
2023-05-04T17:17:49.181Z,10.98
2023-05-04T17:20:32.093Z,11.82
2023-05-04T17:23:19.051Z,10.48
2023-05-04T17:26:06.016Z,12.77
2023-05-04T17:28:46.461Z,11.55
2023-05-04T17:31:33.050Z,11.27
2023-05-04T17:34:13.464Z,14.77
2023-05-04T17:37:00.036Z,12.63
2023-05-04T17:39:47.392Z,11.27
2023-05-04T17:42:27.029Z,8.82
2023-05-04T17:45:14.050Z,9.88
2023-05-04T17:47:54.541Z,11.18
2023-05-04T17:50:41.062Z,10.10
2023-05-04T17:53:27.968Z,10.90
2023-05-04T17:56:08.419Z,11.55
2023-05-04T17:58:56.007Z,11.95
2023-05-04T18:01:36.409Z,10.68
2023-05-04T18:04:22.957Z,12.15
2023-05-04T18:07:03.420Z,10.95
2023-05-04T18:09:50.047Z,10.57
2023-05-04T18:12:30.485Z,11.18
2023-05-04T18:15:17.024Z,12.73
2023-05-04T18:17:57.471Z,13.35
2023-05-04T18:20:44.046Z,12.50
2023-05-04T18:23:24.382Z,13.25
2023-05-04T18:26:10.929Z,13.50
2023-05-04T18:29:07.709Z,13.38
2023-05-04T18:31:57.105Z,12.95
2023-05-04T18:34:43.994Z,14.00
2023-05-04T18:37:25.269Z,14.88
2023-05-04T18:40:12.936Z,13.75
2023-05-04T18:42:53.051Z,14.20
2023-05-04T18:45:39.994Z,12.77
2023-05-04T18:48:27.095Z,13.43
2023-05-04T18:51:14.979Z,17.52
2023-05-04T18:53:55.078Z,11.75
2023-05-04T18:56:42.969Z,14.15
2023-05-04T18:59:23.056Z,13.88
2023-05-04T19:02:09.893Z,13.50
2023-05-04T19:04:56.893Z,13.63
2023-05-04T19:07:44.060Z,13.68
2023-05-04T19:10:24.893Z,12.55
2023-05-04T19:13:12.230Z,11.65
2023-05-04T19:15:51.965Z,12.32
2023-05-04T19:18:40.870Z,11.73
2023-05-04T19:21:20.988Z,13.10
2023-05-04T19:24:07.890Z,11.63
2023-05-04T19:26:48.029Z,12.13
2023-05-04T19:42:17.640Z,14.20
2023-05-04T19:44:58.080Z,15.80
2023-05-04T19:47:44.664Z,13.80
2023-05-04T19:50:25.619Z,12.93
2023-05-04T19:53:06.096Z,12.80
2023-05-04T19:55:52.602Z,14.40
2023-05-04T19:58:39.619Z,14.50
2023-05-04T20:01:19.718Z,10.52
2023-05-04T20:04:06.642Z,15.85
2023-05-04T20:06:46.721Z,13.90
2023-05-04T20:09:33.646Z,13.60
2023-05-04T20:12:13.735Z,11.60
2023-05-04T20:15:00.592Z,13.25
2023-05-04T20:17:41.582Z,13.93
2023-05-04T20:20:29.565Z,13.68
2023-05-04T20:23:09.735Z,12.25
2023-05-04T20:25:56.583Z,12.70
2023-05-04T20:28:36.744Z,11.80
2023-05-04T20:31:23.663Z,11.15
2023-05-04T20:34:03.659Z,11.48
2023-05-04T20:36:52.518Z,10.82
2023-05-04T20:39:39.590Z,10.75
2023-05-04T20:42:26.607Z,11.23
2023-05-04T20:45:06.600Z,9.75
2023-05-04T20:47:46.973Z,11.18
2023-05-04T20:50:27.606Z,11.30
2023-05-04T20:53:14.568Z,10.40
2023-05-04T20:55:54.914Z,11.48
2023-05-04T20:58:41.532Z,10.10
2023-05-04T21:01:21.906Z,11.45
2023-05-04T21:04:08.573Z,10.63
2023-05-04T21:06:48.878Z,12.25
2023-05-04T21:09:35.522Z,11.88
2023-05-04T21:12:22.658Z,11.95
2023-05-04T21:15:02.512Z,13.80
2023-05-04T21:17:53.355Z,12.25
2023-05-04T21:20:33.502Z,11.93
2023-05-04T21:23:20.489Z,10.48
2023-05-04T21:26:08.671Z,11.13
2023-05-04T21:28:57.624Z,11.48
2023-05-04T21:31:37.563Z,12.20
2023-05-04T21:34:24.453Z,11.82
2023-05-04T21:37:04.632Z,12.30
2023-05-04T21:39:51.506Z,11.30
2023-05-04T21:42:38.557Z,12.20
2023-05-04T21:45:18.448Z,12.10
2023-05-04T21:48:05.609Z,12.75
2023-05-04T21:50:45.618Z,13.43
2023-05-04T21:53:32.456Z,11.65
2023-05-04T21:56:14.585Z,11.90
2023-05-04T21:59:01.450Z,12.82
2023-05-04T22:01:42.494Z,11.50
2023-05-04T22:04:29.474Z,11.35
2023-05-04T22:07:09.529Z,14.25
2023-05-04T22:09:56.408Z,15.00
2023-05-04T22:12:36.539Z,12.65
2023-05-04T22:15:24.466Z,12.75
2023-05-04T22:18:07.672Z,12.93
2023-05-04T22:20:54.440Z,14.32
2023-05-04T22:23:34.521Z,13.52
2023-05-04T22:26:21.437Z,13.27
2023-05-04T22:29:08.490Z,13.43
2023-05-04T22:31:48.785Z,13.32
2023-05-04T22:34:35.398Z,13.30
2023-05-04T22:37:22.405Z,13.50
2023-05-04T22:40:09.726Z,13.30
2023-05-04T22:42:49.826Z,14.43
2023-05-04T22:45:36.424Z,13.65
2023-05-04T22:48:16.905Z,12.43
2023-05-04T22:51:03.365Z,16.33
2023-05-04T22:53:50.424Z,13.98
2023-05-04T22:56:32.595Z,12.43
2023-05-04T22:59:19.335Z,14.05
2023-05-04T23:02:06.440Z,11.40
2023-05-04T23:04:53.415Z,11.00
2023-05-04T23:07:33.469Z,12.00
2023-05-04T23:10:20.353Z,12.50
2023-05-04T23:13:00.525Z,10.90
2023-05-04T23:15:47.475Z,11.32
2023-05-04T23:18:27.494Z,10.70
2023-05-04T23:21:14.335Z,11.07
2023-05-04T23:23:57.484Z,9.10
2023-05-04T23:26:44.393Z,11.00
2023-05-04T23:29:32.358Z,11.23
2023-05-04T23:32:12.770Z,11.00
2023-05-04T23:35:00.377Z,11.07
2023-05-04T23:37:41.107Z,11.15
2023-05-04T23:40:28.399Z,10.35
2023-05-04T23:43:08.731Z,10.15
2023-05-04T23:45:55.347Z,11.95
2023-05-04T23:48:35.861Z,11.27
2023-05-04T23:51:22.353Z,10.48
2023-05-04T23:54:02.719Z,12.00
2023-05-04T23:56:49.304Z,12.00
2023-05-04T23:59:30.138Z,12.35
